Time;durP1;ratioP1;P1;durP2;ratioP2;P2;SDS_P1;SDS_P2;PMS_P1;PMS_P2;Temp;Humidity;BMP_temperature;BMP_pressure;BME280_temperature;BME280_humidity;BME280_pressure;Samples;Min_cycle;Max_cycle;Signal;HPM_P1;HPM_P2
2022/04/25 00:00:14;;;;;;;12.55;9.75;;;;;;;11.33;69.52;100183.59;690490;28;1073;-78
2022/04/25 00:00:37;;;;;;;12.88;9.90;;;;;;;11.33;69.47;100181.88;689665;28;799;-79
2022/04/25 00:00:58;;;;;;;13.68;9.70;;;;;;;11.28;69.52;100180.03;687681;28;1374;-78
2022/04/25 00:01:18;;;;;;;13.95;9.73;;;;;;;11.40;69.49;100195.03;684533;28;1977;-78
2022/04/25 00:01:39;;;;;;;13.30;9.30;;;;;;;11.30;69.37;100179.22;692103;28;1230;-78
2022/04/25 00:02:00;;;;;;;14.15;9.40;;;;;;;11.32;69.33;100181.84;690072;28;1520;-78
2022/04/25 00:02:21;;;;;;;13.73;9.17;;;;;;;11.33;69.21;100181.88;687693;28;1772;-78
2022/04/25 00:02:41;;;;;;;14.43;9.55;;;;;;;11.31;69.43;100175.75;685046;28;1135;-78
2022/04/25 00:03:03;;;;;;;14.02;9.90;;;;;;;11.41;69.44;100196.81;690494;28;1139;-78
2022/04/25 00:03:23;;;;;;;15.13;10.13;;;;;;;11.30;69.46;100175.75;687997;28;787;-78
2022/04/25 00:03:44;;;;;;;14.10;10.00;;;;;;;11.34;69.38;100191.47;687934;28;1152;-79
2022/04/25 00:04:05;;;;;;;12.32;9.70;;;;;;;11.37;69.24;100182.81;687750;28;1313;-78
2022/04/25 00:04:26;;;;;;;12.32;9.73;;;;;;;11.31;69.38;100180.09;690486;28;1654;-79
2022/04/25 00:04:46;;;;;;;12.43;9.77;;;;;;;11.38;69.62;100195.88;690242;28;1254;-79
2022/04/25 00:05:07;;;;;;;13.37;10.10;;;;;;;11.32;69.54;100182.72;687982;28;1025;-79
2022/04/25 00:05:28;;;;;;;13.90;10.35;;;;;;;11.36;69.30;100175.81;687939;28;1472;-79
2022/04/25 00:05:49;;;;;;;14.07;10.68;;;;;;;11.35;69.46;100181.88;687808;28;1402;-79
2022/04/25 00:06:10;;;;;;;13.00;10.40;;;;;;;11.43;69.27;100189.84;690556;28;1161;-79
2022/04/25 00:06:30;;;;;;;14.82;10.23;;;;;;;11.36;69.34;100176.69;685279;28;1370;-79
2022/04/25 00:06:51;;;;;;;16.00;10.00;;;;;;;11.38;69.19;100179.34;686787;28;1111;-79
2022/04/25 00:07:12;;;;;;;16.48;10.10;;;;;;;11.42;69.31;100185.50;690514;28;1499;-79
2022/04/25 00:07:33;;;;;;;15.23;9.95;;;;;;;11.37;69.23;100182.81;690550;28;1304;-79
2022/04/25 00:07:54;;;;;;;14.23;10.25;;;;;;;11.36;69.39;100181.91;687488;28;1254;-79
2022/04/25 00:08:15;;;;;;;13.98;10.10;;;;;;;11.40;69.04;100185.47;688014;28;1248;-79
2022/04/25 00:08:35;;;;;;;13.40;9.90;;;;;;;11.42;69.50;100191.59;682682;29;1304;-78
2022/04/25 00:08:56;;;;;;;13.40;9.80;;;;;;;11.38;69.30;100189.78;681544;28;2324;-79
2022/04/25 00:09:16;;;;;;;14.90;10.10;;;;;;;11.34;69.23;100175.81;686803;28;1458;-78
2022/04/25 00:09:37;;;;;;;14.85;10.23;;;;;;;11.40;69.39;100195.03;687097;28;783;-79
2022/04/25 00:09:57;;;;;;;14.63;10.37;;;;;;;11.31;69.32;100172.25;682146;28;1639;-78
2022/04/25 00:10:18;;;;;;;15.50;10.00;;;;;;;11.42;69.16;100191.59;684597;28;1403;-79
2022/04/25 00:10:39;;;;;;;16.38;10.20;;;;;;;11.38;69.25;100181.97;687531;28;1382;-78
2022/04/25 00:11:00;;;;;;;18.00;10.40;;;;;;;11.45;69.34;100193.38;686173;28;1216;-78
2022/04/25 00:11:21;;;;;;;16.25;10.20;;;;;;;11.40;69.14;100185.47;683511;28;1141;-79
2022/04/25 00:11:42;;;;;;;15.18;9.98;;;;;;;11.35;69.22;100182.78;687404;28;1196;-78
2022/04/25 00:12:03;;;;;;;14.15;9.85;;;;;;;11.33;69.15;100186.22;689914;28;1267;-78
2022/04/25 00:12:23;;;;;;;13.63;9.80;;;;;;;11.33;69.28;100181.88;689774;28;1567;-79
2022/04/25 00:12:44;;;;;;;14.00;9.70;;;;;;;11.30;69.33;100173.13;690983;28;1160;-78
2022/04/25 00:13:04;;;;;;;13.82;9.85;;;;;;;11.37;69.40;100195.88;690485;28;1083;-78
2022/04/25 00:13:26;;;;;;;14.30;9.90;;;;;;;11.39;69.16;100202.00;688378;28;1293;-78
2022/04/25 00:13:46;;;;;;;13.73;9.73;;;;;;;11.33;69.38;100184.50;687638;28;1159;-78
2022/04/25 00:14:07;;;;;;;13.03;9.10;;;;;;;11.49;69.36;100193.44;687952;28;974;-78
2022/04/25 00:14:28;;;;;;;12.63;9.00;;;;;;;11.43;69.20;100180.28;690626;28;1348;-78
2022/04/25 00:14:48;;;;;;;13.27;9.40;;;;;;;11.54;69.09;100197.84;688054;28;1260;-78
2022/04/25 00:15:10;;;;;;;14.15;9.52;;;;;;;11.45;68.93;100186.41;687708;28;1757;-78
2022/04/25 00:15:30;;;;;;;14.60;10.00;;;;;;;11.44;68.94;100191.63;688000;28;823;-79
2022/04/25 00:15:52;;;;;;;15.03;9.90;;;;;;;11.43;69.07;100185.50;687687;28;1135;-79
2022/04/25 00:16:13;;;;;;;15.57;10.20;;;;;;;11.49;69.12;100195.19;687731;28;1426;-79
2022/04/25 00:16:34;;;;;;;15.48;9.98;;;;;;;11.42;69.37;100178.50;687841;28;831;-78
2022/04/25 00:16:56;;;;;;;14.40;9.75;;;;;;;11.37;69.13;100180.19;685288;28;1465;-78
2022/04/25 00:17:24;;;;;;;12.68;9.40;;;;;;;11.46;69.41;100188.16;685118;28;1552;-78
2022/04/25 00:17:44;;;;;;;12.73;9.52;;;;;;;11.41;69.18;100178.50;689845;28;1378;-78
2022/04/25 00:18:05;;;;;;;13.93;9.70;;;;;;;11.43;69.10;100190.72;690473;28;1163;-78
2022/04/25 00:18:26;;;;;;;15.70;10.10;;;;;;;11.46;69.19;100196.00;693211;28;1108;-78
2022/04/25 00:18:48;;;;;;;16.00;9.77;;;;;;;11.44;69.40;100192.47;691061;28;1285;-80
2022/04/25 00:19:09;;;;;;;15.27;9.82;;;;;;;11.43;69.07;100188.09;685107;28;1715;-79
2022/04/25 00:19:30;;;;;;;13.55;9.45;;;;;;;11.45;69.23;100186.41;683575;28;2045;-78
2022/04/25 00:19:50;;;;;;;13.55;10.00;;;;;;;11.48;69.35;100193.41;683361;28;1543;-78
2022/04/25 00:20:11;;;;;;;13.77;9.83;;;;;;;11.54;69.25;100203.09;690105;28;1091;-78
2022/04/25 00:20:31;;;;;;;17.48;10.23;;;;;;;11.51;69.29;100196.94;685278;28;1176;-79
2022/04/25 00:20:52;;;;;;;15.77;9.68;;;;;;;11.43;69.33;100184.63;688337;28;1558;-79
2022/04/25 00:21:13;;;;;;;16.47;9.57;;;;;;;11.44;69.33;100187.25;690458;28;1203;-78
2022/04/25 00:21:34;;;;;;;14.05;9.80;;;;;;;11.44;69.21;100187.25;687788;28;1922;-78
2022/04/25 00:21:54;;;;;;;14.45;10.05;;;;;;;11.41;69.28;100183.75;687183;28;1486;-78
2022/04/25 00:22:46;;;;;;;14.80;10.30;;;;;;;11.50;69.31;100203.03;684932;28;1588;-78
2022/04/25 00:23:07;;;;;;;13.68;10.40;;;;;;;11.48;69.24;100193.41;685143;28;1591;-78
2022/04/25 00:23:28;;;;;;;12.98;10.25;;;;;;;11.43;69.25;100179.41;687163;28;1471;-79
2022/04/25 00:23:48;;;;;;;12.60;10.27;;;;;;;11.45;69.32;100186.41;685946;28;1202;-78
2022/04/25 00:24:08;;;;;;;12.20;10.30;;;;;;;11.46;69.45;100185.56;687801;28;1677;-78
2022/04/25 00:24:29;;;;;;;13.70;9.80;;;;;;;11.46;69.37;100187.28;687909;28;808;-78
2022/04/25 00:25:10;;;;;;;14.20;9.63;;;;;;;11.52;69.42;100196.13;690442;28;1294;-78
2022/04/25 00:25:35;;;;;;;14.60;9.90;;;;;;;11.45;69.35;100189.03;690017;28;1499;-79
2022/04/25 00:25:55;;;;;;;14.18;9.75;;;;;;;11.50;69.28;100192.56;684967;28;1246;-78
2022/04/25 00:26:16;;;;;;;13.23;9.53;;;;;;;11.49;69.02;100190.81;685267;28;910;-78
2022/04/25 00:26:37;;;;;;;12.93;9.75;;;;;;;11.47;69.25;100181.19;687946;28;1155;-78
2022/04/25 00:26:57;;;;;;;13.07;9.93;;;;;;;11.47;69.30;100186.41;687701;28;1194;-78
2022/04/25 00:27:18;;;;;;;12.80;9.82;;;;;;;11.44;69.37;100187.25;687883;28;1313;-78
2022/04/25 00:27:39;;;;;;;14.02;9.90;;;;;;;11.44;69.26;100181.16;687822;28;1008;-78
2022/04/25 00:28:01;;;;;;;12.90;9.48;;;;;;;11.56;69.33;100196.16;691648;28;1174;-78
2022/04/25 00:28:22;;;;;;;13.57;9.70;;;;;;;11.49;69.14;100184.72;688094;28;1538;-77
2022/04/25 00:28:42;;;;;;;13.57;10.68;;;;;;;11.49;69.27;100185.59;682415;28;1072;-78
2022/04/25 00:29:03;;;;;;;13.83;11.10;;;;;;;11.54;69.32;100195.25;687118;28;1194;-79
2022/04/25 00:29:23;;;;;;;14.00;11.40;;;;;;;11.50;69.02;100178.66;690501;28;854;-79
2022/04/25 00:29:44;;;;;;;13.85;10.55;;;;;;;11.47;69.08;100187.31;687249;28;1064;-79
2022/04/25 00:30:05;;;;;;;13.60;10.30;;;;;;;11.50;68.94;100176.03;686443;28;1518;-78
2022/04/25 00:30:28;;;;;;;12.73;9.63;;;;;;;11.43;69.03;100174.19;685131;28;868;-78
2022/04/25 00:30:49;;;;;;;12.50;9.90;;;;;;;11.48;68.98;100177.72;685595;28;1231;-78
2022/04/25 00:31:09;;;;;;;13.70;10.05;;;;;;;11.55;69.15;100189.16;690509;28;1360;-78
2022/04/25 00:31:30;;;;;;;14.40;10.40;;;;;;;11.52;68.87;100190.00;690621;28;1322;-79
2022/04/25 00:31:51;;;;;;;13.82;10.00;;;;;;;11.50;68.92;100187.34;692496;28;1185;-78
2022/04/25 00:32:20;;;;;;;13.13;10.40;;;;;;;11.56;68.98;100193.53;687847;28;1631;-79
2022/04/25 00:32:41;;;;;;;13.05;10.10;;;;;;;11.54;68.95;100192.63;693180;28;1152;-79
2022/04/25 00:33:02;;;;;;;13.25;10.30;;;;;;;11.45;69.04;100178.59;688281;28;1311;-78
2022/04/25 00:33:23;;;;;;;13.73;10.05;;;;;;;11.52;68.95;100196.13;690661;28;798;-79
2022/04/25 00:33:43;;;;;;;12.80;10.05;;;;;;;11.49;69.18;100182.97;687890;28;1303;-78
2022/04/25 00:34:04;;;;;;;13.40;9.90;;;;;;;11.43;69.04;100185.50;684353;28;1606;-79
2022/04/25 00:34:25;;;;;;;13.67;10.00;;;;;;;11.45;69.01;100188.13;688010;28;780;-78
2022/04/25 00:34:45;;;;;;;15.13;9.95;;;;;;;11.44;68.93;100187.25;687244;28;1254;-79
2022/04/25 00:35:06;;;;;;;14.67;10.17;;;;;;;11.45;69.16;100183.81;688802;28;1219;-79
2022/04/25 00:35:27;;;;;;;14.77;10.30;;;;;;;11.46;68.96;100184.66;689895;28;1288;-79
2022/04/25 00:35:48;;;;;;;15.47;10.77;;;;;;;11.52;68.90;100195.22;688152;28;1373;-78
2022/04/25 00:36:08;;;;;;;14.77;10.60;;;;;;;11.54;68.90;100195.25;689137;28;1939;-79
2022/04/25 00:36:29;;;;;;;14.77;10.55;;;;;;;11.56;68.83;100185.69;690586;28;1283;-78
2022/04/25 00:36:49;;;;;;;15.80;10.30;;;;;;;11.49;69.08;100180.38;689890;28;1488;-78
2022/04/25 00:37:10;;;;;;;17.23;10.80;;;;;;;11.58;68.69;100204.88;687691;28;1501;-79
2022/04/25 00:37:31;;;;;;;17.02;10.95;;;;;;;11.54;68.96;100201.34;687901;28;1280;-78
2022/04/25 00:37:52;;;;;;;16.30;11.10;;;;;;;11.58;68.84;100205.75;686807;28;1464;-78
2022/04/25 00:38:12;;;;;;;13.32;10.25;;;;;;;11.55;69.09;100200.47;689701;28;1823;-78
2022/04/25 00:38:33;;;;;;;14.05;10.00;;;;;;;11.48;69.00;100183.84;687885;28;851;-78
2022/04/25 00:38:54;;;;;;;14.40;9.98;;;;;;;11.55;69.07;100197.00;688886;28;1195;-78
2022/04/25 00:39:14;;;;;;;16.00;10.37;;;;;;;11.50;69.17;100191.72;687657;28;1288;-78
2022/04/25 00:39:35;;;;;;;14.00;10.02;;;;;;;11.49;68.99;100196.03;687355;28;1605;-78
2022/04/25 00:39:55;;;;;;;13.77;9.97;;;;;;;11.49;68.90;100188.22;687460;28;1153;-78
2022/04/25 00:40:19;;;;;;;14.05;10.20;;;;;;;11.49;68.84;100196.03;685513;28;1694;-79
2022/04/25 00:40:40;;;;;;;13.88;10.45;;;;;;;11.49;68.97;100190.81;687700;28;981;-79
2022/04/25 00:41:01;;;;;;;14.00;10.18;;;;;;;11.49;68.99;100188.22;684275;28;1320;-78
2022/04/25 00:41:22;;;;;;;12.65;9.60;;;;;;;11.51;68.96;100199.56;685008;28;1916;-78
2022/04/25 00:41:43;;;;;;;12.38;9.73;;;;;;;11.53;69.04;100196.97;687869;28;1095;-77
2022/04/25 00:42:04;;;;;;;12.32;10.27;;;;;;;11.52;68.85;100184.75;687731;28;1222;-78
2022/04/25 00:42:25;;;;;;;15.65;10.43;;;;;;;11.54;68.92;100203.09;685041;28;1098;-78
2022/04/25 00:42:46;;;;;;;15.90;10.50;;;;;;;11.46;68.87;100184.66;685091;28;1099;-78
2022/04/25 00:43:07;;;;;;;15.80;10.32;;;;;;;11.49;68.85;100184.72;688619;28;1732;-79
2022/04/25 00:43:28;;;;;;;13.63;10.47;;;;;;;11.52;68.95;100198.72;690553;28;1288;-78
2022/04/25 00:43:48;;;;;;;14.67;10.90;;;;;;;11.48;69.09;100189.06;687942;28;1272;-78
2022/04/25 00:44:09;;;;;;;15.20;10.57;;;;;;;11.49;68.87;100190.81;686265;28;1626;-78
2022/04/25 00:44:29;;;;;;;16.33;10.57;;;;;;;11.51;68.99;100194.31;685208;28;1243;-79
2022/04/25 00:44:50;;;;;;;15.18;10.23;;;;;;;11.52;68.65;100206.56;687827;28;1397;-78
2022/04/25 00:45:11;;;;;;;13.97;10.37;;;;;;;11.49;68.90;100189.97;687825;28;1273;-79
2022/04/25 00:45:33;;;;;;;13.13;10.32;;;;;;;11.51;68.87;100196.94;687444;28;1421;-79
2022/04/25 00:45:54;;;;;;;12.27;10.13;;;;;;;11.52;68.90;100195.22;688516;28;1453;-79
2022/04/25 00:46:26;;;;;;;12.18;10.32;;;;;;;11.55;68.58;100199.63;690402;28;1278;-80
2022/04/25 00:46:48;;;;;;;13.07;10.30;;;;;;;11.49;68.98;100201.28;687705;28;1108;-79
2022/04/25 00:47:09;;;;;;;13.73;10.13;;;;;;;11.46;68.88;100190.78;687530;28;1345;-78
2022/04/25 00:47:31;;;;;;;15.15;10.13;;;;;;;11.51;68.93;100199.56;690684;28;1413;-79
2022/04/25 00:47:52;;;;;;;13.95;10.07;;;;;;;11.45;68.99;100183.81;687365;28;1355;-78
2022/04/25 00:48:12;;;;;;;14.20;10.30;;;;;;;11.45;68.75;100181.19;685111;28;1145;-82
2022/04/25 00:48:33;;;;;;;12.30;10.43;;;;;;;11.47;69.25;100191.66;687811;28;792;-78
2022/04/25 00:48:53;;;;;;;12.48;10.25;;;;;;;11.49;69.02;100196.03;690764;28;1321;-78
2022/04/25 00:49:14;;;;;;;13.50;9.90;;;;;;;11.51;68.85;100189.09;687554;28;1218;-78
2022/04/25 00:49:35;;;;;;;15.03;9.53;;;;;;;11.57;68.87;100203.13;686970;28;1107;-79
2022/04/25 00:49:56;;;;;;;16.88;10.10;;;;;;;11.58;68.98;100192.69;686399;28;1476;-79
2022/04/25 00:50:17;;;;;;;15.70;10.33;;;;;;;11.49;68.82;100185.59;687900;28;981;-78
2022/04/25 00:50:41;;;;;;;14.25;10.38;;;;;;;11.56;68.79;100197.00;684863;28;1665;-79
2022/04/25 00:51:01;;;;;;;13.63;10.25;;;;;;;11.50;68.84;100192.56;684065;28;1363;-79
2022/04/25 00:51:22;;;;;;;12.50;10.00;;;;;;;11.52;68.67;100200.44;685365;28;1216;-78
2022/04/25 00:51:42;;;;;;;12.38;10.02;;;;;;;11.48;68.78;100183.84;685178;28;1096;-79
2022/04/25 00:52:04;;;;;;;13.25;10.10;;;;;;;11.54;68.88;100192.63;684920;28;1384;-78
2022/04/25 00:52:24;;;;;;;13.85;10.60;;;;;;;11.51;68.87;100190.84;685179;28;790;-78
2022/04/25 00:52:53;;;;;;;14.45;10.75;;;;;;;11.49;68.73;100193.44;684804;28;1245;-78
2022/04/25 00:53:13;;;;;;;12.52;10.10;;;;;;;11.49;68.53;100196.03;686299;28;1566;-78
2022/04/25 00:53:34;;;;;;;13.20;10.13;;;;;;;11.46;68.68;100180.34;690577;28;853;-78
2022/04/25 00:53:55;;;;;;;12.60;9.87;;;;;;;11.56;68.77;100204.84;691852;28;1132;-78
2022/04/25 00:54:15;;;;;;;15.45;10.20;;;;;;;11.47;68.61;100187.31;693309;28;996;-79
2022/04/25 00:54:36;;;;;;;15.32;10.40;;;;;;;11.43;68.70;100185.50;688231;28;1052;-78
2022/04/25 00:55:01;;;;;;;16.27;10.48;;;;;;;11.42;68.77;100180.28;689037;28;1169;-78
2022/04/25 00:55:22;;;;;;;13.50;10.35;;;;;;;11.41;68.62;100182.00;690318;28;1658;-79
2022/04/25 00:55:43;;;;;;;13.15;10.25;;;;;;;11.44;68.50;100184.63;690522;28;936;-79
2022/04/25 00:56:05;;;;;;;12.23;10.40;;;;;;;11.51;68.56;100193.47;689498;28;1659;-79
2022/04/25 00:56:26;;;;;;;12.52;10.60;;;;;;;11.45;68.82;100194.25;690528;28;1358;-79
2022/04/25 00:56:49;;;;;;;12.07;10.30;;;;;;;11.40;68.43;100182.84;695824;28;1238;-79
2022/04/25 00:57:10;;;;;;;11.68;9.65;;;;;;;11.42;68.58;100183.75;692031;28;1504;-79
2022/04/25 00:57:31;;;;;;;11.90;9.32;;;;;;;11.39;68.52;100181.09;690492;28;1338;-79
2022/04/25 00:57:56;;;;;;;13.85;9.70;;;;;;;11.43;68.69;100187.25;687909;28;1267;-79
2022/04/25 00:58:17;;;;;;;15.68;10.40;;;;;;;11.34;68.58;100177.53;685065;28;1240;-78
2022/04/25 00:58:38;;;;;;;15.05;10.30;;;;;;;11.40;68.90;100200.25;684556;28;886;-78
2022/04/25 00:58:59;;;;;;;13.00;10.00;;;;;;;11.35;68.38;100179.28;685687;28;1017;-79
2022/04/25 00:59:24;;;;;;;12.98;10.10;;;;;;;11.37;68.70;100190.66;689489;28;1169;-78
2022/04/25 00:59:45;;;;;;;12.27;9.98;;;;;;;11.37;68.80;100195.88;690001;28;973;-78
2022/04/25 01:00:08;;;;;;;13.38;10.23;;;;;;;11.36;68.71;100186.25;692831;28;1281;-78
2022/04/25 01:00:28;;;;;;;12.93;10.25;;;;;;;11.35;68.76;100192.34;687777;28;806;-78
2022/04/25 01:00:49;;;;;;;13.53;10.10;;;;;;;11.35;68.90;100188.00;685461;28;1116;-78
2022/04/25 01:01:11;;;;;;;14.00;10.25;;;;;;;11.34;68.68;100186.25;690297;28;1160;-79
2022/04/25 01:01:31;;;;;;;13.95;9.73;;;;;;;11.33;68.78;100188.84;688548;28;1919;-78
2022/04/25 01:02:05;;;;;;;14.50;10.07;;;;;;;11.41;68.77;100199.41;689745;28;1332;-78
2022/04/25 01:02:27;;;;;;;14.23;9.90;;;;;;;11.40;68.77;100200.25;685179;28;843;-78
2022/04/25 01:02:47;;;;;;;14.55;10.00;;;;;;;11.34;68.93;100188.88;690320;28;1181;-79
2022/04/25 01:03:08;;;;;;;14.60;10.43;;;;;;;11.40;68.94;100198.53;690309;28;1607;-79
2022/04/25 01:03:28;;;;;;;13.90;10.45;;;;;;;11.30;68.96;100183.56;690524;28;948;-78
2022/04/25 01:03:49;;;;;;;14.57;10.20;;;;;;;11.31;68.91;100187.94;690315;28;1149;-78
2022/04/25 01:04:10;;;;;;;16.45;9.93;;;;;;;11.36;68.83;100187.16;690339;28;1124;-79
2022/04/25 01:04:31;;;;;;;17.15;10.18;;;;;;;11.35;68.90;100188.00;687763;28;1197;-79
2022/04/25 01:04:54;;;;;;;14.77;9.88;;;;;;;11.31;68.85;100183.56;684977;28;1167;-79
2022/04/25 01:05:14;;;;;;;13.77;9.90;;;;;;;11.39;68.65;100194.16;690337;28;1547;-79
2022/04/25 01:05:35;;;;;;;14.07;9.90;;;;;;;11.41;68.83;100197.66;687762;28;1070;-78
2022/04/25 01:05:56;;;;;;;14.33;10.10;;;;;;;11.38;68.84;100185.44;685548;28;1083;-79
2022/04/25 01:06:16;;;;;;;13.18;10.00;;;;;;;11.35;68.83;100184.50;687681;28;1155;-78
2022/04/25 01:06:37;;;;;;;14.00;10.13;;;;;;;11.35;68.73;100184.50;690259;28;1469;-79
2022/04/25 01:06:58;;;;;;;14.60;10.60;;;;;;;11.38;68.53;100187.19;690804;28;1550;-79
2022/04/25 01:07:18;;;;;;;14.80;10.80;;;;;;;11.43;68.82;100195.94;690497;28;1040;-80
2022/04/25 01:07:39;;;;;;;14.57;11.20;;;;;;;11.39;68.91;100191.53;685131;28;1378;-78
2022/04/25 01:08:00;;;;;;;14.50;10.73;;;;;;;11.37;68.83;100183.69;689318;28;1352;-78
2022/04/25 01:08:20;;;;;;;13.30;10.27;;;;;;;11.40;68.55;100190.69;687619;28;1722;-78
2022/04/25 01:08:41;;;;;;;12.73;9.93;;;;;;;11.45;68.59;100194.25;687711;28;1066;-79
2022/04/25 01:09:02;;;;;;;13.25;10.45;;;;;;;11.40;68.65;100184.56;688192;28;1237;-78
2022/04/25 01:09:25;;;;;;;14.98;10.80;;;;;;;11.46;68.56;100195.13;682253;28;1663;-78
2022/04/25 01:09:46;;;;;;;15.25;10.55;;;;;;;11.40;68.81;100180.22;684259;28;1198;-79
2022/04/25 01:10:09;;;;;;;14.98;10.20;;;;;;;11.35;68.63;100181.88;687680;28;1537;-78
2022/04/25 01:10:30;;;;;;;14.57;10.05;;;;;;;11.36;68.51;100179.31;687831;28;1122;-79
2022/04/25 01:11:01;;;;;;;13.45;9.70;;;;;;;11.37;68.83;100180.19;688225;28;1147;-78
2022/04/25 01:11:23;;;;;;;12.98;9.75;;;;;;;11.43;68.82;100190.72;685044;28;1655;-79
2022/04/25 01:11:43;;;;;;;13.82;10.27;;;;;;;11.32;68.64;100177.50;687718;28;1307;-78
2022/04/25 01:12:04;;;;;;;15.50;10.90;;;;;;;11.35;68.67;100187.13;689588;28;1437;-79
2022/04/25 01:12:25;;;;;;;15.93;10.95;;;;;;;11.34;68.70;100178.41;685672;28;1254;-79
2022/04/25 01:12:45;;;;;;;16.08;10.75;;;;;;;11.36;68.48;100181.91;685056;28;1082;-78
2022/04/25 01:13:06;;;;;;;15.50;10.20;;;;;;;11.37;68.75;100185.44;686366;28;1400;-79
2022/04/25 01:13:26;;;;;;;15.87;10.10;;;;;;;11.32;68.74;100174.03;690550;28;1206;-79
2022/04/25 01:13:47;;;;;;;17.55;10.18;;;;;;;11.34;68.60;100185.34;690171;28;1184;-78
2022/04/25 01:14:19;;;;;;;16.23;10.13;;;;;;;11.35;68.86;100184.50;687499;28;1421;-78
2022/04/25 01:14:39;;;;;;;15.85;11.05;;;;;;;11.28;68.62;100177.41;687800;28;1017;-78
2022/04/25 01:15:04;;;;;;;15.65;11.10;;;;;;;11.27;68.70;100184.41;685972;28;1188;-78
2022/04/25 01:15:39;;;;;;;14.80;10.73;;;;;;;11.23;69.02;100188.69;683358;28;1674;-78
2022/04/25 01:15:59;;;;;;;12.57;10.30;;;;;;;11.14;68.97;100178.09;684447;28;1492;-80
2022/04/25 01:16:20;;;;;;;13.50;10.30;;;;;;;11.12;68.99;100176.31;687639;28;1786;-78
2022/04/25 01:16:53;;;;;;;14.48;10.38;;;;;;;11.15;69.16;100190.31;687765;28;815;-79
2022/04/25 01:17:14;;;;;;;15.38;11.00;;;;;;;11.12;69.17;100185.00;689272;28;1483;-79
2022/04/25 01:17:35;;;;;;;15.35;10.93;;;;;;;11.12;69.22;100179.78;687842;28;1332;-78
2022/04/25 01:17:56;;;;;;;13.80;10.57;;;;;;;11.07;69.39;100178.84;684773;28;1391;-78
2022/04/25 01:18:17;;;;;;;14.13;10.15;;;;;;;11.09;69.54;100182.38;687258;28;1780;-78
2022/04/25 01:18:37;;;;;;;14.48;10.40;;;;;;;11.10;69.18;100192.84;687797;28;939;-78
2022/04/25 01:18:58;;;;;;;15.10;10.43;;;;;;;11.03;69.59;100175.31;690961;28;1483;-78
2022/04/25 01:19:18;;;;;;;15.95;11.38;;;;;;;11.07;69.59;100182.31;687677;28;1091;-79
2022/04/25 01:19:39;;;;;;;15.73;11.30;;;;;;;10.99;69.16;100165.66;687109;28;1195;-79
2022/04/25 01:19:59;;;;;;;16.17;11.90;;;;;;;11.04;69.54;100182.28;687812;28;1355;-79
2022/04/25 01:20:20;;;;;;;14.02;10.95;;;;;;;11.07;69.29;100184.06;684806;28;1541;-78
2022/04/25 01:20:41;;;;;;;15.70;10.90;;;;;;;11.05;69.16;100180.56;687698;28;1161;-78
2022/04/25 01:21:05;;;;;;;15.20;10.57;;;;;;;10.97;69.30;100168.25;687502;28;1190;-79
2022/04/25 01:21:27;;;;;;;15.90;11.20;;;;;;;10.96;69.25;100169.09;687528;28;1971;-79
2022/04/25 01:21:55;;;;;;;14.18;11.30;;;;;;;10.97;69.62;100170.88;690238;28;1476;-78
2022/04/25 01:22:19;;;;;;;16.23;11.20;;;;;;;11.02;69.68;100183.09;687581;28;1096;-78
2022/04/25 01:22:56;;;;;;;15.77;10.88;;;;;;;10.96;69.44;100174.31;689354;28;1214;-79
2022/04/25 01:27:16;;;;;;;15.10;10.73;;;;;;;11.01;69.52;100191.81;687158;28;937;-78
2022/04/25 01:27:37;;;;;;;14.25;10.20;;;;;;;11.02;69.69;100190.94;687795;28;1073;-78
2022/04/25 01:27:57;;;;;;;14.25;10.05;;;;;;;10.95;69.59;100193.44;693417;28;1117;-78
2022/04/25 01:28:18;;;;;;;14.10;9.90;;;;;;;10.98;69.84;100190.00;693138;28;1104;-79
2022/04/25 01:28:38;;;;;;;13.63;10.20;;;;;;;11.01;69.77;100191.81;691031;28;1099;-78
2022/04/25 01:29:01;;;;;;;14.48;10.68;;;;;;;11.01;69.59;100194.41;694013;28;1442;-79
2022/04/25 01:29:22;;;;;;;14.25;10.98;;;;;;;11.03;69.75;100195.31;693508;28;1215;-79
2022/04/25 01:29:43;;;;;;;14.18;11.00;;;;;;;10.99;69.85;100191.75;689772;28;1128;-79
2022/04/25 01:30:04;;;;;;;13.60;10.80;;;;;;;11.01;69.79;100197.03;687547;28;1103;-78
2022/04/25 01:30:24;;;;;;;14.77;10.65;;;;;;;10.97;69.59;100194.38;687456;28;1122;-79
2022/04/25 01:30:45;;;;;;;15.27;11.07;;;;;;;11.00;69.74;100192.66;688171;28;965;-78
2022/04/25 01:31:05;;;;;;;17.55;11.45;;;;;;;11.01;69.72;100195.31;687611;28;1302;-79
2022/04/25 01:31:26;;;;;;;17.50;11.80;;;;;;;11.00;69.45;100190.91;685542;28;970;-79
2022/04/25 01:31:46;;;;;;;19.67;12.00;;;;;;;11.01;69.66;100191.81;686266;28;1178;-79
2022/04/25 01:32:08;;;;;;;17.20;11.50;;;;;;;11.01;69.43;100186.59;690482;28;956;-79
2022/04/25 01:32:29;;;;;;;16.05;11.10;;;;;;;11.05;69.68;100194.50;690509;28;862;-79
2022/04/25 01:32:49;;;;;;;14.00;10.73;;;;;;;11.08;69.72;100199.75;692975;28;1348;-79
2022/04/25 01:33:10;;;;;;;14.63;11.47;;;;;;;11.08;69.45;100196.28;690348;28;1639;-79
2022/04/25 01:33:31;;;;;;;14.93;11.82;;;;;;;11.04;69.34;100184.91;690008;28;1347;-79
2022/04/25 01:33:51;;;;;;;14.98;11.75;;;;;;;11.08;69.42;100191.06;693079;28;1142;-78
2022/04/25 01:34:12;;;;;;;14.25;11.32;;;;;;;11.09;69.75;100195.41;684986;28;1196;-78
2022/04/25 01:34:33;;;;;;;13.90;10.90;;;;;;;11.12;69.62;100200.69;685057;28;804;-79
2022/04/25 01:34:53;;;;;;;14.02;11.18;;;;;;;11.06;69.37;100191.03;687597;28;1146;-79
2022/04/25 01:35:14;;;;;;;15.57;11.20;;;;;;;11.14;69.44;100191.16;687629;28;1162;-79
2022/04/25 01:35:34;;;;;;;16.63;11.40;;;;;;;11.18;69.32;100190.34;685112;28;1263;-79
2022/04/25 01:35:55;;;;;;;18.63;11.65;;;;;;;11.22;69.19;100191.28;688732;28;1224;-78
2022/04/25 01:36:16;;;;;;;17.55;11.60;;;;;;;11.26;69.31;100208.75;690072;28;1769;-78
2022/04/25 01:36:36;;;;;;;16.03;11.27;;;;;;;11.26;69.25;100198.31;690004;28;1290;-79
2022/04/25 01:36:57;;;;;;;14.30;10.95;;;;;;;11.22;68.96;100191.28;686133;28;1369;-79
2022/04/25 01:37:18;;;;;;;13.98;11.13;;;;;;;11.29;68.81;100203.56;687675;28;1297;-79
2022/04/25 01:37:39;;;;;;;15.40;11.63;;;;;;;11.29;68.92;100193.13;690456;28;1106;-79
2022/04/25 01:37:59;;;;;;;17.08;11.80;;;;;;;11.28;68.97;100200.94;687612;28;1277;-79
2022/04/25 01:38:20;;;;;;;17.27;11.70;;;;;;;11.33;68.63;100202.78;687582;28;1068;-78
2022/04/25 01:38:41;;;;;;;17.33;11.27;;;;;;;11.36;68.79;100204.53;685115;28;1078;-79
2022/04/25 01:39:02;;;;;;;17.58;11.30;;;;;;;11.35;68.90;100200.19;689679;28;1467;-78
2022/04/25 01:39:22;;;;;;;17.83;11.27;;;;;;;11.32;68.77;100192.31;685009;28;1308;-79
2022/04/25 01:39:46;;;;;;;16.10;11.20;;;;;;;11.29;68.82;100187.03;684444;28;1210;-78
2022/04/25 01:40:07;;;;;;;15.40;10.90;;;;;;;11.33;68.85;100199.28;687502;28;1345;-78
2022/04/25 01:40:27;;;;;;;14.15;10.80;;;;;;;11.36;68.75;100197.59;687801;28;812;-78
2022/04/25 01:40:48;;;;;;;14.83;11.30;;;;;;;11.34;68.54;100191.47;685053;28;1143;-78
2022/04/25 01:41:08;;;;;;;14.80;11.48;;;;;;;11.36;68.46;100199.31;685004;28;977;-79
2022/04/25 01:41:29;;;;;;;15.00;11.40;;;;;;;11.36;68.55;100194.09;687573;28;1978;-79
2022/04/25 01:41:49;;;;;;;14.07;11.15;;;;;;;11.41;68.45;100210.72;687679;28;1084;-78
2022/04/25 01:42:10;;;;;;;13.73;11.20;;;;;;;11.40;68.75;100198.53;687713;28;919;-78
2022/04/25 01:42:30;;;;;;;14.00;11.37;;;;;;;11.38;68.58;100200.25;687768;28;1190;-78
2022/04/25 01:42:51;;;;;;;13.88;11.38;;;;;;;11.37;68.54;100191.50;692857;28;1520;-78
2022/04/25 01:43:12;;;;;;;14.60;11.30;;;;;;;11.37;68.55;100195.88;691923;28;1231;-79
2022/04/25 01:43:36;;;;;;;15.77;11.50;;;;;;;11.33;68.53;100183.59;690424;28;1125;-79
2022/04/25 01:43:57;;;;;;;16.35;11.60;;;;;;;11.43;68.76;100206.41;691605;28;1514;-79
2022/04/25 01:44:17;;;;;;;15.85;11.50;;;;;;;11.38;68.67;100201.09;693154;28;1106;-79
2022/04/25 01:44:39;;;;;;;15.83;11.80;;;;;;;11.36;68.66;100194.09;693166;28;1298;-79
2022/04/25 01:45:00;;;;;;;16.20;11.88;;;;;;;11.44;68.59;100208.16;687190;28;1257;-79